Redington Shores, Florida
Current Conditions -  °F | °C
As of 6:53 PM on Sunday 25 Jan 2015 (Local Time) from KPIE Reporting Station
Clear Clear  
Wind Chill: 55°   Ceiling: Unl
Heat Index: 55°   Visibility: 10mi
Dew Point: 48°   Wind: 5mph
Humidity: 77%   Direction: 190°S
Pressure: 30.01"   Gusts: NA
Location:  27.8164°N, 82.7802°W
Report Text: KPIE 252353Z 19004KT 10SM CLR 13/09 A3001 RMK AO2 SLP163 T01280089 10178 20128 51009
Loading
Personal Weather Stations






























Interactive Weather Map New forecast layout! Learn more

10-Day Weather Forecast

Advertisements
Track Severe Weather on mobile